sensor_id;sensor_type;location;lat;lon;timestamp;temperature;humidity
13205;DHT22;6667;52.634;9.226;2024-02-14T00:01:37;6.80;99.90
13205;DHT22;6667;52.634;9.226;2024-02-14T00:04:04;6.80;99.90
13205;DHT22;6667;52.634;9.226;2024-02-14T00:06:35;6.80;99.90
13205;DHT22;6667;52.634;9.226;2024-02-14T00:09:01;6.80;99.90
13205;DHT22;6667;52.634;9.226;2024-02-14T00:11:28;6.80;99.90
13205;DHT22;6667;52.634;9.226;2024-02-14T00:13:55;6.80;99.90
13205;DHT22;6667;52.634;9.226;2024-02-14T00:16:22;6.80;99.90
13205;DHT22;6667;52.634;9.226;2024-02-14T00:18:50;6.80;99.90
13205;DHT22;6667;52.634;9.226;2024-02-14T00:21:17;6.80;99.90
13205;DHT22;6667;52.634;9.226;2024-02-14T00:23:43;6.80;99.90
13205;DHT22;6667;52.634;9.226;2024-02-14T00:26:10;6.80;99.90
13205;DHT22;6667;52.634;9.226;2024-02-14T00:28:37;6.80;99.90
13205;DHT22;6667;52.634;9.226;2024-02-14T00:31:04;6.90;99.90
13205;DHT22;6667;52.634;9.226;2024-02-14T00:33:31;6.90;99.90
13205;DHT22;6667;52.634;9.226;2024-02-14T00:35:59;6.90;99.90
13205;DHT22;6667;52.634;9.226;2024-02-14T00:38:26;6.90;99.90
13205;DHT22;6667;52.634;9.226;2024-02-14T00:40:52;6.90;99.90
13205;DHT22;6667;52.634;9.226;2024-02-14T00:43:19;6.80;99.90
13205;DHT22;6667;52.634;9.226;2024-02-14T00:45:46;6.80;99.90
13205;DHT22;6667;52.634;9.226;2024-02-14T00:48:13;6.90;99.90
13205;DHT22;6667;52.634;9.226;2024-02-14T00:50:39;6.80;99.90
13205;DHT22;6667;52.634;9.226;2024-02-14T00:53:07;6.80;99.90
13205;DHT22;6667;52.634;9.226;2024-02-14T00:55:34;6.80;99.90
13205;DHT22;6667;52.634;9.226;2024-02-14T00:58:00;6.80;99.90
13205;DHT22;6667;52.634;9.226;2024-02-14T01:00:27;6.80;99.90
13205;DHT22;6667;52.634;9.226;2024-02-14T01:02:57;6.80;99.90
13205;DHT22;6667;52.634;9.226;2024-02-14T01:05:23;6.80;99.90
13205;DHT22;6667;52.634;9.226;2024-02-14T01:07:50;6.80;99.90
13205;DHT22;6667;52.634;9.226;2024-02-14T01:10:20;6.80;99.90
13205;DHT22;6667;52.634;9.226;2024-02-14T01:12:47;6.70;99.90
13205;DHT22;6667;52.634;9.226;2024-02-14T01:15:14;6.80;99.90
13205;DHT22;6667;52.634;9.226;2024-02-14T01:17:40;6.80;99.90
13205;DHT22;6667;52.634;9.226;2024-02-14T01:20:08;6.80;99.90
13205;DHT22;6667;52.634;9.226;2024-02-14T01:22:35;6.80;99.90
13205;DHT22;6667;52.634;9.226;2024-02-14T01:25:02;6.80;99.90
13205;DHT22;6667;52.634;9.226;2024-02-14T01:27:31;6.90;99.90
13205;DHT22;6667;52.634;9.226;2024-02-14T01:29:58;6.90;99.90
13205;DHT22;6667;52.634;9.226;2024-02-14T01:32:24;6.90;99.90
13205;DHT22;6667;52.634;9.226;2024-02-14T01:34:51;6.90;99.90
13205;DHT22;6667;52.634;9.226;2024-02-14T01:37:18;6.80;99.90
13205;DHT22;6667;52.634;9.226;2024-02-14T01:39:46;6.90;99.90
13205;DHT22;6667;52.634;9.226;2024-02-14T01:42:12;7.00;99.90
13205;DHT22;6667;52.634;9.226;2024-02-14T01:44:41;6.90;99.90
13205;DHT22;6667;52.634;9.226;2024-02-14T01:47:09;6.90;99.90
13205;DHT22;6667;52.634;9.226;2024-02-14T01:49:36;6.90;99.90
13205;DHT22;6667;52.634;9.226;2024-02-14T01:52:04;6.80;99.90
13205;DHT22;6667;52.634;9.226;2024-02-14T01:54:31;6.70;99.90
13205;DHT22;6667;52.634;9.226;2024-02-14T01:56:58;6.70;99.90
13205;DHT22;6667;52.634;9.226;2024-02-14T01:59:26;6.60;99.90
13205;DHT22;6667;52.634;9.226;2024-02-14T02:01:54;6.60;99.90
13205;DHT22;6667;52.634;9.226;2024-02-14T02:04:21;6.50;99.90
13205;DHT22;6667;52.634;9.226;2024-02-14T02:06:47;6.50;99.90
13205;DHT22;6667;52.634;9.226;2024-02-14T02:09:14;6.50;99.90
13205;DHT22;6667;52.634;9.226;2024-02-14T02:11:48;6.50;99.90
13205;DHT22;6667;52.634;9.226;2024-02-14T02:14:16;6.40;99.90
13205;DHT22;6667;52.634;9.226;2024-02-14T02:16:43;6.40;99.90
13205;DHT22;6667;52.634;9.226;2024-02-14T02:19:12;6.40;99.90
13205;DHT22;6667;52.634;9.226;2024-02-14T02:21:41;6.30;99.90
13205;DHT22;6667;52.634;9.226;2024-02-14T02:24:10;6.30;99.90
13205;DHT22;6667;52.634;9.226;2024-02-14T02:26:37;6.30;99.90
13205;DHT22;6667;52.634;9.226;2024-02-14T02:29:03;6.30;99.90
13205;DHT22;6667;52.634;9.226;2024-02-14T02:31:31;6.30;99.90
13205;DHT22;6667;52.634;9.226;2024-02-14T02:33:58;6.30;99.90
13205;DHT22;6667;52.634;9.226;2024-02-14T02:36:25;6.30;99.90
13205;DHT22;6667;52.634;9.226;2024-02-14T02:38:55;6.30;99.90
13205;DHT22;6667;52.634;9.226;2024-02-14T02:41:24;6.30;99.90
13205;DHT22;6667;52.634;9.226;2024-02-14T02:43:52;6.30;99.90
13205;DHT22;6667;52.634;9.226;2024-02-14T02:46:19;6.30;99.90
13205;DHT22;6667;52.634;9.226;2024-02-14T02:48:47;6.30;99.90
13205;DHT22;6667;52.634;9.226;2024-02-14T02:51:16;6.30;99.90
13205;DHT22;6667;52.634;9.226;2024-02-14T02:53:42;6.30;99.90
13205;DHT22;6667;52.634;9.226;2024-02-14T02:56:09;6.30;99.90
13205;DHT22;6667;52.634;9.226;2024-02-14T02:58:39;6.30;99.90
13205;DHT22;6667;52.634;9.226;2024-02-14T03:01:07;6.20;99.90
13205;DHT22;6667;52.634;9.226;2024-02-14T03:03:34;6.20;99.90
13205;DHT22;6667;52.634;9.226;2024-02-14T03:06:01;6.30;99.90
13205;DHT22;6667;52.634;9.226;2024-02-14T03:08:29;6.30;99.90
13205;DHT22;6667;52.634;9.226;2024-02-14T03:10:56;6.30;99.90
13205;DHT22;6667;52.634;9.226;2024-02-14T03:13:24;6.20;99.90
13205;DHT22;6667;52.634;9.226;2024-02-14T03:15:53;6.30;99.90
13205;DHT22;6667;52.634;9.226;2024-02-14T03:18:21;6.20;99.90
13205;DHT22;6667;52.634;9.226;2024-02-14T03:20:48;6.20;99.90
13205;DHT22;6667;52.634;9.226;2024-02-14T03:23:15;6.20;99.90
13205;DHT22;6667;52.634;9.226;2024-02-14T03:25:42;6.20;99.90
13205;DHT22;6667;52.634;9.226;2024-02-14T03:28:09;6.20;99.90
13205;DHT22;6667;52.634;9.226;2024-02-14T03:30:37;6.20;99.90
13205;DHT22;6667;52.634;9.226;2024-02-14T03:33:06;6.20;99.90
13205;DHT22;6667;52.634;9.226;2024-02-14T03:35:33;6.20;99.90
13205;DHT22;6667;52.634;9.226;2024-02-14T03:38:01;6.20;99.90
13205;DHT22;6667;52.634;9.226;2024-02-14T03:40:27;6.20;99.90
13205;DHT22;6667;52.634;9.226;2024-02-14T03:42:55;6.20;99.90
13205;DHT22;6667;52.634;9.226;2024-02-14T03:45:22;6.30;99.90
13205;DHT22;6667;52.634;9.226;2024-02-14T03:47:49;6.30;99.90
13205;DHT22;6667;52.634;9.226;2024-02-14T03:50:17;6.30;99.90
13205;DHT22;6667;52.634;9.226;2024-02-14T03:52:43;6.30;99.90
13205;DHT22;6667;52.634;9.226;2024-02-14T03:55:10;6.30;99.90
13205;DHT22;6667;52.634;9.226;2024-02-14T03:57:38;6.30;99.90
13205;DHT22;6667;52.634;9.226;2024-02-14T04:00:06;6.30;99.90
13205;DHT22;6667;52.634;9.226;2024-02-14T04:02:35;6.30;99.90
13205;DHT22;6667;52.634;9.226;2024-02-14T04:05:02;6.30;99.90
13205;DHT22;6667;52.634;9.226;2024-02-14T04:07:30;6.40;99.90
13205;DHT22;6667;52.634;9.226;2024-02-14T04:09:57;6.40;99.90
13205;DHT22;6667;52.634;9.226;2024-02-14T04:12:23;6.40;99.90
13205;DHT22;6667;52.634;9.226;2024-02-14T04:14:50;6.40;99.90
13205;DHT22;6667;52.634;9.226;2024-02-14T04:17:16;6.40;99.90
13205;DHT22;6667;52.634;9.226;2024-02-14T04:19:43;6.40;99.90
13205;DHT22;6667;52.634;9.226;2024-02-14T04:22:10;6.40;99.90
13205;DHT22;6667;52.634;9.226;2024-02-14T04:24:38;6.50;99.90
13205;DHT22;6667;52.634;9.226;2024-02-14T04:27:04;6.50;99.90
13205;DHT22;6667;52.634;9.226;2024-02-14T04:29:31;6.50;99.90
13205;DHT22;6667;52.634;9.226;2024-02-14T04:31:58;6.50;99.90
13205;DHT22;6667;52.634;9.226;2024-02-14T04:34:25;6.50;99.90
13205;DHT22;6667;52.634;9.226;2024-02-14T04:36:52;6.50;99.90
13205;DHT22;6667;52.634;9.226;2024-02-14T04:39:19;6.50;99.90
13205;DHT22;6667;52.634;9.226;2024-02-14T04:41:46;6.60;99.90
13205;DHT22;6667;52.634;9.226;2024-02-14T04:44:15;6.60;99.90
13205;DHT22;6667;52.634;9.226;2024-02-14T04:46:42;6.60;99.90
13205;DHT22;6667;52.634;9.226;2024-02-14T04:49:09;6.60;99.90
13205;DHT22;6667;52.634;9.226;2024-02-14T04:51:36;6.60;99.90
13205;DHT22;6667;52.634;9.226;2024-02-14T04:54:02;6.60;99.90
13205;DHT22;6667;52.634;9.226;2024-02-14T04:56:31;6.70;99.90
13205;DHT22;6667;52.634;9.226;2024-02-14T04:58:59;6.70;99.90
13205;DHT22;6667;52.634;9.226;2024-02-14T05:01:25;6.70;99.90
13205;DHT22;6667;52.634;9.226;2024-02-14T05:03:52;6.70;99.90
13205;DHT22;6667;52.634;9.226;2024-02-14T05:06:18;6.70;99.90
13205;DHT22;6667;52.634;9.226;2024-02-14T05:08:45;6.70;99.90
13205;DHT22;6667;52.634;9.226;2024-02-14T05:11:12;6.70;99.90
13205;DHT22;6667;52.634;9.226;2024-02-14T05:13:39;6.70;99.90
13205;DHT22;6667;52.634;9.226;2024-02-14T05:16:08;6.80;99.90
13205;DHT22;6667;52.634;9.226;2024-02-14T05:18:36;6.80;99.90
13205;DHT22;6667;52.634;9.226;2024-02-14T05:21:05;6.80;99.90
13205;DHT22;6667;52.634;9.226;2024-02-14T05:23:32;6.80;99.90
13205;DHT22;6667;52.634;9.226;2024-02-14T05:25:58;6.90;99.90
13205;DHT22;6667;52.634;9.226;2024-02-14T05:28:25;6.90;99.90
13205;DHT22;6667;52.634;9.226;2024-02-14T05:30:51;6.90;99.90
13205;DHT22;6667;52.634;9.226;2024-02-14T05:33:20;6.90;99.90
13205;DHT22;6667;52.634;9.226;2024-02-14T05:35:47;6.90;99.90
13205;DHT22;6667;52.634;9.226;2024-02-14T05:38:14;7.00;99.90
13205;DHT22;6667;52.634;9.226;2024-02-14T05:40:41;7.00;99.90
13205;DHT22;6667;52.634;9.226;2024-02-14T05:43:09;7.00;99.90
13205;DHT22;6667;52.634;9.226;2024-02-14T05:45:36;7.00;99.90
13205;DHT22;6667;52.634;9.226;2024-02-14T05:48:03;7.00;99.90
13205;DHT22;6667;52.634;9.226;2024-02-14T05:50:31;7.00;99.90
13205;DHT22;6667;52.634;9.226;2024-02-14T05:52:58;7.00;99.90
13205;DHT22;6667;52.634;9.226;2024-02-14T05:55:25;7.00;99.90
13205;DHT22;6667;52.634;9.226;2024-02-14T05:57:52;7.10;99.90
13205;DHT22;6667;52.634;9.226;2024-02-14T06:00:19;7.10;99.90
13205;DHT22;6667;52.634;9.226;2024-02-14T06:02:46;7.10;99.90
13205;DHT22;6667;52.634;9.226;2024-02-14T06:05:14;7.20;99.90
13205;DHT22;6667;52.634;9.226;2024-02-14T06:07:42;7.10;99.90
13205;DHT22;6667;52.634;9.226;2024-02-14T06:10:11;7.20;99.90
13205;DHT22;6667;52.634;9.226;2024-02-14T06:12:37;7.20;99.90
13205;DHT22;6667;52.634;9.226;2024-02-14T06:15:06;7.20;99.90
13205;DHT22;6667;52.634;9.226;2024-02-14T06:17:33;7.30;99.90
13205;DHT22;6667;52.634;9.226;2024-02-14T06:20:00;7.30;99.90
13205;DHT22;6667;52.634;9.226;2024-02-14T06:22:31;7.30;99.90
13205;DHT22;6667;52.634;9.226;2024-02-14T06:24:59;7.30;99.90
13205;DHT22;6667;52.634;9.226;2024-02-14T06:27:26;7.40;99.90
13205;DHT22;6667;52.634;9.226;2024-02-14T06:29:53;7.40;99.90
13205;DHT22;6667;52.634;9.226;2024-02-14T06:32:20;7.50;99.90
13205;DHT22;6667;52.634;9.226;2024-02-14T06:34:46;7.50;99.90
13205;DHT22;6667;52.634;9.226;2024-02-14T06:37:13;7.50;99.90
13205;DHT22;6667;52.634;9.226;2024-02-14T06:39:40;7.60;99.90
13205;DHT22;6667;52.634;9.226;2024-02-14T06:42:08;7.60;99.90
13205;DHT22;6667;52.634;9.226;2024-02-14T06:44:34;7.60;99.90
13205;DHT22;6667;52.634;9.226;2024-02-14T06:47:01;7.60;99.90
13205;DHT22;6667;52.634;9.226;2024-02-14T06:49:27;7.60;99.90
13205;DHT22;6667;52.634;9.226;2024-02-14T06:51:54;7.70;99.90
13205;DHT22;6667;52.634;9.226;2024-02-14T06:54:21;7.70;99.90
13205;DHT22;6667;52.634;9.226;2024-02-14T06:56:47;7.70;99.90
13205;DHT22;6667;52.634;9.226;2024-02-14T06:59:15;7.70;99.90
13205;DHT22;6667;52.634;9.226;2024-02-14T07:01:42;7.70;99.90
13205;DHT22;6667;52.634;9.226;2024-02-14T07:04:08;7.70;99.90
13205;DHT22;6667;52.634;9.226;2024-02-14T07:06:35;7.80;99.90
13205;DHT22;6667;52.634;9.226;2024-02-14T07:09:02;7.80;99.90
13205;DHT22;6667;52.634;9.226;2024-02-14T07:11:28;7.90;99.90
13205;DHT22;6667;52.634;9.226;2024-02-14T07:13:55;7.80;99.90
13205;DHT22;6667;52.634;9.226;2024-02-14T07:16:24;7.90;99.90
13205;DHT22;6667;52.634;9.226;2024-02-14T07:18:51;7.90;99.90
13205;DHT22;6667;52.634;9.226;2024-02-14T07:21:17;7.90;99.90
13205;DHT22;6667;52.634;9.226;2024-02-14T07:23:44;7.90;99.90
13205;DHT22;6667;52.634;9.226;2024-02-14T07:26:10;8.00;99.90
13205;DHT22;6667;52.634;9.226;2024-02-14T07:28:37;8.00;99.90
13205;DHT22;6667;52.634;9.226;2024-02-14T07:31:04;8.00;99.90
13205;DHT22;6667;52.634;9.226;2024-02-14T07:33:32;8.10;99.90
13205;DHT22;6667;52.634;9.226;2024-02-14T07:35:58;8.00;99.90
13205;DHT22;6667;52.634;9.226;2024-02-14T07:38:25;8.10;99.90
13205;DHT22;6667;52.634;9.226;2024-02-14T07:40:52;8.10;99.90
13205;DHT22;6667;52.634;9.226;2024-02-14T07:43:18;8.20;99.90
13205;DHT22;6667;52.634;9.226;2024-02-14T07:45:45;8.20;99.90
13205;DHT22;6667;52.634;9.226;2024-02-14T07:48:13;8.20;99.90
13205;DHT22;6667;52.634;9.226;2024-02-14T07:50:41;8.20;99.90
13205;DHT22;6667;52.634;9.226;2024-02-14T07:53:08;8.30;99.90
13205;DHT22;6667;52.634;9.226;2024-02-14T07:55:34;8.30;99.90
13205;DHT22;6667;52.634;9.226;2024-02-14T07:58:01;8.30;99.90
13205;DHT22;6667;52.634;9.226;2024-02-14T08:00:28;8.30;99.90
13205;DHT22;6667;52.634;9.226;2024-02-14T08:02:54;8.30;99.90
13205;DHT22;6667;52.634;9.226;2024-02-14T08:05:21;8.40;99.90
13205;DHT22;6667;52.634;9.226;2024-02-14T08:07:49;8.40;99.90
13205;DHT22;6667;52.634;9.226;2024-02-14T08:10:15;8.40;99.90
13205;DHT22;6667;52.634;9.226;2024-02-14T08:12:42;8.40;99.90
13205;DHT22;6667;52.634;9.226;2024-02-14T08:15:09;8.50;99.90
13205;DHT22;6667;52.634;9.226;2024-02-14T08:17:36;8.50;99.90
13205;DHT22;6667;52.634;9.226;2024-02-14T08:20:03;8.60;99.90
13205;DHT22;6667;52.634;9.226;2024-02-14T08:22:30;8.60;99.90
13205;DHT22;6667;52.634;9.226;2024-02-14T08:24:58;8.60;99.90
13205;DHT22;6667;52.634;9.226;2024-02-14T08:27:25;8.70;99.90
13205;DHT22;6667;52.634;9.226;2024-02-14T08:29:53;8.70;99.90
13205;DHT22;6667;52.634;9.226;2024-02-14T08:32:19;8.70;99.90
13205;DHT22;6667;52.634;9.226;2024-02-14T08:34:46;8.70;99.90
13205;DHT22;6667;52.634;9.226;2024-02-14T08:37:13;8.80;99.90
13205;DHT22;6667;52.634;9.226;2024-02-14T08:39:39;8.80;99.90
13205;DHT22;6667;52.634;9.226;2024-02-14T08:42:08;8.80;99.90
13205;DHT22;6667;52.634;9.226;2024-02-14T08:44:35;8.80;99.90
13205;DHT22;6667;52.634;9.226;2024-02-14T08:47:03;8.80;99.90
13205;DHT22;6667;52.634;9.226;2024-02-14T08:49:29;8.90;99.90
13205;DHT22;6667;52.634;9.226;2024-02-14T08:51:56;8.90;99.90
13205;DHT22;6667;52.634;9.226;2024-02-14T08:54:22;8.90;99.90
13205;DHT22;6667;52.634;9.226;2024-02-14T08:56:50;8.90;99.90
13205;DHT22;6667;52.634;9.226;2024-02-14T08:59:20;9.00;99.90
13205;DHT22;6667;52.634;9.226;2024-02-14T09:01:47;9.00;99.90
13205;DHT22;6667;52.634;9.226;2024-02-14T09:04:13;9.10;99.90
13205;DHT22;6667;52.634;9.226;2024-02-14T09:06:40;9.10;99.90
13205;DHT22;6667;52.634;9.226;2024-02-14T09:09:07;9.10;99.90
13205;DHT22;6667;52.634;9.226;2024-02-14T09:11:35;9.10;99.90
13205;DHT22;6667;52.634;9.226;2024-02-14T09:14:02;9.10;99.90
13205;DHT22;6667;52.634;9.226;2024-02-14T09:16:33;9.20;99.90
13205;DHT22;6667;52.634;9.226;2024-02-14T09:18:59;9.20;99.90
13205;DHT22;6667;52.634;9.226;2024-02-14T09:21:27;9.20;99.90
13205;DHT22;6667;52.634;9.226;2024-02-14T09:23:54;9.20;99.90
13205;DHT22;6667;52.634;9.226;2024-02-14T09:26:21;9.30;99.90
13205;DHT22;6667;52.634;9.226;2024-02-14T09:28:47;9.30;99.90
13205;DHT22;6667;52.634;9.226;2024-02-14T09:31:17;9.30;99.90
13205;DHT22;6667;52.634;9.226;2024-02-14T09:33:46;9.30;99.90
13205;DHT22;6667;52.634;9.226;2024-02-14T09:36:14;9.40;99.90
13205;DHT22;6667;52.634;9.226;2024-02-14T09:38:40;9.40;99.90
13205;DHT22;6667;52.634;9.226;2024-02-14T09:41:14;9.40;99.90
13205;DHT22;6667;52.634;9.226;2024-02-14T09:43:44;9.50;99.90
13205;DHT22;6667;52.634;9.226;2024-02-14T09:46:12;9.50;99.90
13205;DHT22;6667;52.634;9.226;2024-02-14T09:48:40;9.50;99.90
13205;DHT22;6667;52.634;9.226;2024-02-14T09:51:09;9.50;99.90
13205;DHT22;6667;52.634;9.226;2024-02-14T09:53:38;9.60;99.90
13205;DHT22;6667;52.634;9.226;2024-02-14T09:56:09;9.60;99.90
13205;DHT22;6667;52.634;9.226;2024-02-14T09:58:36;9.60;99.90
13205;DHT22;6667;52.634;9.226;2024-02-14T10:01:03;9.60;99.90
13205;DHT22;6667;52.634;9.226;2024-02-14T10:03:30;9.60;99.90
13205;DHT22;6667;52.634;9.226;2024-02-14T10:05:56;9.60;99.90
13205;DHT22;6667;52.634;9.226;2024-02-14T10:08:25;9.60;99.90
13205;DHT22;6667;52.634;9.226;2024-02-14T10:10:52;9.70;99.90
13205;DHT22;6667;52.634;9.226;2024-02-14T10:13:19;9.70;99.90
13205;DHT22;6667;52.634;9.226;2024-02-14T10:15:45;9.70;99.90
13205;DHT22;6667;52.634;9.226;2024-02-14T10:18:12;9.80;99.90
13205;DHT22;6667;52.634;9.226;2024-02-14T10:20:40;9.80;99.90
13205;DHT22;6667;52.634;9.226;2024-02-14T10:23:10;9.80;99.90
13205;DHT22;6667;52.634;9.226;2024-02-14T10:25:38;9.80;99.90
13205;DHT22;6667;52.634;9.226;2024-02-14T10:28:06;9.80;99.90
13205;DHT22;6667;52.634;9.226;2024-02-14T10:30:34;9.80;99.90
13205;DHT22;6667;52.634;9.226;2024-02-14T10:33:02;9.90;99.90
13205;DHT22;6667;52.634;9.226;2024-02-14T10:35:30;9.90;99.90
13205;DHT22;6667;52.634;9.226;2024-02-14T10:37:58;9.90;99.90
13205;DHT22;6667;52.634;9.226;2024-02-14T10:40:27;9.90;99.90
13205;DHT22;6667;52.634;9.226;2024-02-14T10:42:55;9.90;99.90
13205;DHT22;6667;52.634;9.226;2024-02-14T10:45:23;9.90;99.90
13205;DHT22;6667;52.634;9.226;2024-02-14T10:47:51;10.00;99.90
13205;DHT22;6667;52.634;9.226;2024-02-14T10:50:21;10.00;99.90
13205;DHT22;6667;52.634;9.226;2024-02-14T10:52:48;10.00;99.90
13205;DHT22;6667;52.634;9.226;2024-02-14T10:55:16;10.00;99.90
13205;DHT22;6667;52.634;9.226;2024-02-14T10:57:44;10.10;99.90
13205;DHT22;6667;52.634;9.226;2024-02-14T11:00:15;10.10;99.90
13205;DHT22;6667;52.634;9.226;2024-02-14T11:02:43;10.20;99.90
13205;DHT22;6667;52.634;9.226;2024-02-14T11:05:14;10.20;99.90
13205;DHT22;6667;52.634;9.226;2024-02-14T11:07:44;10.20;99.90
13205;DHT22;6667;52.634;9.226;2024-02-14T11:10:14;10.30;99.90
13205;DHT22;6667;52.634;9.226;2024-02-14T11:12:41;10.30;99.90
13205;DHT22;6667;52.634;9.226;2024-02-14T11:15:15;10.30;99.90
13205;DHT22;6667;52.634;9.226;2024-02-14T11:17:43;10.40;99.90
13205;DHT22;6667;52.634;9.226;2024-02-14T11:20:17;10.40;99.90
13205;DHT22;6667;52.634;9.226;2024-02-14T11:22:53;10.50;99.90
13205;DHT22;6667;52.634;9.226;2024-02-14T11:25:23;10.50;99.90
13205;DHT22;6667;52.634;9.226;2024-02-14T11:27:50;10.50;99.90
13205;DHT22;6667;52.634;9.226;2024-02-14T11:30:29;10.60;99.90
13205;DHT22;6667;52.634;9.226;2024-02-14T11:33:13;10.60;99.90
13205;DHT22;6667;52.634;9.226;2024-02-14T11:35:40;10.60;99.90
13205;DHT22;6667;52.634;9.226;2024-02-14T11:38:07;10.60;99.90
13205;DHT22;6667;52.634;9.226;2024-02-14T11:40:34;10.70;99.90
13205;DHT22;6667;52.634;9.226;2024-02-14T11:43:01;10.70;99.90
13205;DHT22;6667;52.634;9.226;2024-02-14T11:45:29;10.70;99.90
13205;DHT22;6667;52.634;9.226;2024-02-14T11:47:56;10.70;99.90
13205;DHT22;6667;52.634;9.226;2024-02-14T11:50:22;10.70;99.90
13205;DHT22;6667;52.634;9.226;2024-02-14T11:52:49;10.80;99.90
13205;DHT22;6667;52.634;9.226;2024-02-14T11:55:17;10.80;99.90
13205;DHT22;6667;52.634;9.226;2024-02-14T11:57:44;10.80;99.90
13205;DHT22;6667;52.634;9.226;2024-02-14T12:00:14;10.80;99.90
13205;DHT22;6667;52.634;9.226;2024-02-14T12:02:42;10.90;99.90
13205;DHT22;6667;52.634;9.226;2024-02-14T12:05:09;10.90;99.90
13205;DHT22;6667;52.634;9.226;2024-02-14T12:07:35;10.90;99.90
13205;DHT22;6667;52.634;9.226;2024-02-14T12:10:03;10.80;99.90
13205;DHT22;6667;52.634;9.226;2024-02-14T12:12:29;10.80;99.90
13205;DHT22;6667;52.634;9.226;2024-02-14T12:14:56;10.80;99.90
13205;DHT22;6667;52.634;9.226;2024-02-14T12:17:24;10.80;99.90
13205;DHT22;6667;52.634;9.226;2024-02-14T12:19:52;10.80;99.90
13205;DHT22;6667;52.634;9.226;2024-02-14T12:22:18;10.90;99.90
13205;DHT22;6667;52.634;9.226;2024-02-14T12:24:45;10.80;99.90
13205;DHT22;6667;52.634;9.226;2024-02-14T12:27:13;10.90;99.90
13205;DHT22;6667;52.634;9.226;2024-02-14T12:29:45;10.90;99.90
13205;DHT22;6667;52.634;9.226;2024-02-14T12:32:16;10.90;99.90
13205;DHT22;6667;52.634;9.226;2024-02-14T12:34:44;10.90;99.90
13205;DHT22;6667;52.634;9.226;2024-02-14T12:37:12;10.90;99.90
13205;DHT22;6667;52.634;9.226;2024-02-14T12:39:38;10.90;99.90
13205;DHT22;6667;52.634;9.226;2024-02-14T12:42:05;10.90;99.90
13205;DHT22;6667;52.634;9.226;2024-02-14T12:44:32;11.00;99.90
13205;DHT22;6667;52.634;9.226;2024-02-14T12:46:58;11.00;99.90
13205;DHT22;6667;52.634;9.226;2024-02-14T12:49:25;11.00;99.90
13205;DHT22;6667;52.634;9.226;2024-02-14T12:51:52;11.00;99.90
13205;DHT22;6667;52.634;9.226;2024-02-14T12:54:20;11.10;99.90
13205;DHT22;6667;52.634;9.226;2024-02-14T12:56:46;11.20;99.90
13205;DHT22;6667;52.634;9.226;2024-02-14T12:59:17;11.30;99.90
13205;DHT22;6667;52.634;9.226;2024-02-14T13:01:44;11.30;99.90
13205;DHT22;6667;52.634;9.226;2024-02-14T13:04:12;11.20;99.90
13205;DHT22;6667;52.634;9.226;2024-02-14T13:06:39;11.20;99.90
13205;DHT22;6667;52.634;9.226;2024-02-14T13:09:06;11.20;99.90
13205;DHT22;6667;52.634;9.226;2024-02-14T13:11:35;11.20;99.90
13205;DHT22;6667;52.634;9.226;2024-02-14T13:14:03;11.20;99.90
13205;DHT22;6667;52.634;9.226;2024-02-14T13:16:30;11.20;99.90
13205;DHT22;6667;52.634;9.226;2024-02-14T13:18:56;11.20;99.90
13205;DHT22;6667;52.634;9.226;2024-02-14T13:21:23;11.20;99.90
13205;DHT22;6667;52.634;9.226;2024-02-14T13:23:50;11.20;99.90
13205;DHT22;6667;52.634;9.226;2024-02-14T13:26:16;11.30;99.90
13205;DHT22;6667;52.634;9.226;2024-02-14T13:28:44;11.30;99.90
13205;DHT22;6667;52.634;9.226;2024-02-14T13:31:11;11.30;99.90
13205;DHT22;6667;52.634;9.226;2024-02-14T13:33:38;11.20;99.90
13205;DHT22;6667;52.634;9.226;2024-02-14T13:36:04;11.20;99.90
13205;DHT22;6667;52.634;9.226;2024-02-14T13:38:31;11.30;99.90
13205;DHT22;6667;52.634;9.226;2024-02-14T13:40:58;11.30;99.90
13205;DHT22;6667;52.634;9.226;2024-02-14T13:43:24;11.20;99.90
13205;DHT22;6667;52.634;9.226;2024-02-14T13:45:52;11.30;99.90
13205;DHT22;6667;52.634;9.226;2024-02-14T13:48:19;11.30;99.90
13205;DHT22;6667;52.634;9.226;2024-02-14T13:50:46;11.30;99.90
13205;DHT22;6667;52.634;9.226;2024-02-14T13:53:14;11.30;99.90
13205;DHT22;6667;52.634;9.226;2024-02-14T13:55:42;11.30;99.90
13205;DHT22;6667;52.634;9.226;2024-02-14T13:58:08;11.30;99.90
13205;DHT22;6667;52.634;9.226;2024-02-14T14:00:40;11.30;99.90
13205;DHT22;6667;52.634;9.226;2024-02-14T14:03:09;11.30;99.90
13205;DHT22;6667;52.634;9.226;2024-02-14T14:05:37;11.30;99.90
13205;DHT22;6667;52.634;9.226;2024-02-14T14:08:04;11.30;99.90
13205;DHT22;6667;52.634;9.226;2024-02-14T14:10:30;11.30;99.90
13205;DHT22;6667;52.634;9.226;2024-02-14T14:12:57;11.30;99.90
13205;DHT22;6667;52.634;9.226;2024-02-14T14:15:24;11.30;99.90
13205;DHT22;6667;52.634;9.226;2024-02-14T14:17:51;11.30;99.90
13205;DHT22;6667;52.634;9.226;2024-02-14T14:20:20;11.30;99.90
13205;DHT22;6667;52.634;9.226;2024-02-14T14:22:46;11.30;99.90
13205;DHT22;6667;52.634;9.226;2024-02-14T14:25:13;11.30;99.90
13205;DHT22;6667;52.634;9.226;2024-02-14T14:27:40;11.30;99.90
13205;DHT22;6667;52.634;9.226;2024-02-14T14:30:08;11.30;99.90
13205;DHT22;6667;52.634;9.226;2024-02-14T14:32:35;11.30;99.90
13205;DHT22;6667;52.634;9.226;2024-02-14T14:35:02;11.30;99.90
13205;DHT22;6667;52.634;9.226;2024-02-14T14:37:29;11.30;99.90
13205;DHT22;6667;52.634;9.226;2024-02-14T14:39:56;11.30;99.90
13205;DHT22;6667;52.634;9.226;2024-02-14T14:42:23;11.30;99.90
13205;DHT22;6667;52.634;9.226;2024-02-14T14:44:50;11.20;99.90
13205;DHT22;6667;52.634;9.226;2024-02-14T14:47:16;11.20;99.90
13205;DHT22;6667;52.634;9.226;2024-02-14T14:49:43;11.20;99.90
13205;DHT22;6667;52.634;9.226;2024-02-14T14:52:10;11.20;99.90
13205;DHT22;6667;52.634;9.226;2024-02-14T14:54:37;11.20;99.90
13205;DHT22;6667;52.634;9.226;2024-02-14T14:57:04;11.20;99.90
13205;DHT22;6667;52.634;9.226;2024-02-14T14:59:36;11.20;99.90
13205;DHT22;6667;52.634;9.226;2024-02-14T15:02:03;11.20;99.90
13205;DHT22;6667;52.634;9.226;2024-02-14T15:04:30;11.20;99.90
13205;DHT22;6667;52.634;9.226;2024-02-14T15:06:57;11.20;99.90
13205;DHT22;6667;52.634;9.226;2024-02-14T15:09:24;11.20;99.90
13205;DHT22;6667;52.634;9.226;2024-02-14T15:11:52;11.20;99.90
13205;DHT22;6667;52.634;9.226;2024-02-14T15:14:19;11.20;99.90
13205;DHT22;6667;52.634;9.226;2024-02-14T15:16:45;11.20;99.90
13205;DHT22;6667;52.634;9.226;2024-02-14T15:19:12;11.20;99.90
13205;DHT22;6667;52.634;9.226;2024-02-14T15:21:38;11.20;99.90
13205;DHT22;6667;52.634;9.226;2024-02-14T15:24:06;11.20;99.90
13205;DHT22;6667;52.634;9.226;2024-02-14T15:26:32;11.20;99.90
13205;DHT22;6667;52.634;9.226;2024-02-14T15:29:16;11.20;99.90
13205;DHT22;6667;52.634;9.226;2024-02-14T15:31:56;11.10;99.90
13205;DHT22;6667;52.634;9.226;2024-02-14T15:34:43;11.10;99.90
13205;DHT22;6667;52.634;9.226;2024-02-14T15:37:10;11.00;99.90
13205;DHT22;6667;52.634;9.226;2024-02-14T15:39:36;11.00;99.90
13205;DHT22;6667;52.634;9.226;2024-02-14T15:42:03;11.00;99.90
13205;DHT22;6667;52.634;9.226;2024-02-14T15:44:31;11.00;99.90
13205;DHT22;6667;52.634;9.226;2024-02-14T15:46:58;11.00;99.90
13205;DHT22;6667;52.634;9.226;2024-02-14T15:49:24;11.00;99.90
13205;DHT22;6667;52.634;9.226;2024-02-14T15:51:51;10.90;99.90
13205;DHT22;6667;52.634;9.226;2024-02-14T15:54:18;10.90;99.90
13205;DHT22;6667;52.634;9.226;2024-02-14T15:56:45;10.90;99.90
13205;DHT22;6667;52.634;9.226;2024-02-14T15:59:12;10.90;99.90